Perry Village, Pennsylvania
Current Conditions -  °F | °C
As of 11:56 AM on Friday 31 Oct 2014 (Local Time) from KCXY Reporting Station
Overcast Overcast  
Wind Chill: 50°   Ceiling: 6000
Heat Index: 50°   Visibility: 10mi
Dew Point: 35°   Wind: 3mph
Humidity: 57%   Direction: 90°E
Pressure: 29.99"   Gusts: NA
Location:  40.4189°N, 77.1972°W
Report Text: KCXY 311556Z 09003KT 10SM OVC060 10/02 A2999 RMK AO2 SLP156 T01000017
Loading
Personal Weather Stations






























Interactive Weather Map
Tropical Storm Tracking
New forecast layout! Learn more

10-Day Weather Forecast

Advertisements
Track Severe Weather on mobile